sensor_id;sensor_type;location;lat;lon;timestamp;P1;durP1;ratioP1;P2;durP2;ratioP2
66587;SDS011;53446;50.076;8.198;2022-07-29T00:01:07;8.33;;;3.00;;
66587;SDS011;53446;50.076;8.198;2022-07-29T00:03:07;6.78;;;3.30;;
66587;SDS011;53446;50.076;8.198;2022-07-29T00:05:08;10.07;;;3.50;;
66587;SDS011;53446;50.076;8.198;2022-07-29T00:07:08;8.47;;;3.50;;
66587;SDS011;53446;50.076;8.198;2022-07-29T00:09:09;7.43;;;3.40;;
66587;SDS011;53446;50.076;8.198;2022-07-29T00:11:09;7.45;;;3.17;;
66587;SDS011;53446;50.076;8.198;2022-07-29T00:13:09;9.03;;;3.20;;
66587;SDS011;53446;50.076;8.198;2022-07-29T00:15:10;8.13;;;3.00;;
66587;SDS011;53446;50.076;8.198;2022-07-29T00:17:10;7.80;;;2.90;;
66587;SDS011;53446;50.076;8.198;2022-07-29T00:19:10;8.20;;;3.27;;
66587;SDS011;53446;50.076;8.198;2022-07-29T00:21:10;5.93;;;3.10;;
66587;SDS011;53446;50.076;8.198;2022-07-29T00:23:11;7.10;;;2.90;;
66587;SDS011;53446;50.076;8.198;2022-07-29T00:25:11;6.67;;;2.70;;
66587;SDS011;53446;50.076;8.198;2022-07-29T00:27:12;6.53;;;3.35;;
66587;SDS011;53446;50.076;8.198;2022-07-29T00:29:12;8.47;;;2.83;;
66587;SDS011;53446;50.076;8.198;2022-07-29T00:31:13;6.00;;;2.67;;
66587;SDS011;53446;50.076;8.198;2022-07-29T00:33:13;8.88;;;3.42;;
66587;SDS011;53446;50.076;8.198;2022-07-29T00:35:13;6.87;;;3.07;;
66587;SDS011;53446;50.076;8.198;2022-07-29T00:37:32;10.77;;;4.72;;
66587;SDS011;53446;50.076;8.198;2022-07-29T00:39:32;9.82;;;4.43;;
66587;SDS011;53446;50.076;8.198;2022-07-29T00:41:33;8.97;;;3.27;;
66587;SDS011;53446;50.076;8.198;2022-07-29T00:43:33;7.07;;;3.00;;
66587;SDS011;53446;50.076;8.198;2022-07-29T00:45:33;9.63;;;3.40;;
66587;SDS011;53446;50.076;8.198;2022-07-29T00:47:34;7.80;;;3.00;;
66587;SDS011;53446;50.076;8.198;2022-07-29T00:49:34;9.47;;;3.40;;
66587;SDS011;53446;50.076;8.198;2022-07-29T00:51:36;6.75;;;3.38;;
66587;SDS011;53446;50.076;8.198;2022-07-29T00:53:37;10.73;;;2.90;;
66587;SDS011;53446;50.076;8.198;2022-07-29T00:55:38;9.73;;;3.13;;
66587;SDS011;53446;50.076;8.198;2022-07-29T00:57:38;5.93;;;3.00;;
66587;SDS011;53446;50.076;8.198;2022-07-29T00:59:40;8.00;;;3.20;;
66587;SDS011;53446;50.076;8.198;2022-07-29T01:01:40;7.03;;;3.00;;
66587;SDS011;53446;50.076;8.198;2022-07-29T01:03:40;7.07;;;3.27;;
66587;SDS011;53446;50.076;8.198;2022-07-29T01:05:41;6.67;;;2.80;;
66587;SDS011;53446;50.076;8.198;2022-07-29T01:07:43;6.45;;;3.15;;
66587;SDS011;53446;50.076;8.198;2022-07-29T01:09:44;7.30;;;2.90;;
66587;SDS011;53446;50.076;8.198;2022-07-29T01:11:45;8.40;;;2.88;;
66587;SDS011;53446;50.076;8.198;2022-07-29T01:13:47;7.60;;;3.08;;
66587;SDS011;53446;50.076;8.198;2022-07-29T01:15:52;5.88;;;3.00;;
66587;SDS011;53446;50.076;8.198;2022-07-29T01:18:00;5.97;;;2.60;;
66587;SDS011;53446;50.076;8.198;2022-07-29T01:20:06;7.05;;;2.80;;
66587;SDS011;53446;50.076;8.198;2022-07-29T01:22:19;6.40;;;3.07;;
66587;SDS011;53446;50.076;8.198;2022-07-29T01:24:30;6.25;;;2.70;;
66587;SDS011;53446;50.076;8.198;2022-07-29T01:26:41;6.32;;;2.45;;
66587;SDS011;53446;50.076;8.198;2022-07-29T01:31:03;8.15;;;3.25;;
66587;SDS011;53446;50.076;8.198;2022-07-29T01:33:06;5.47;;;3.00;;
66587;SDS011;53446;50.076;8.198;2022-07-29T01:35:17;8.20;;;3.22;;
66587;SDS011;53446;50.076;8.198;2022-07-29T01:37:28;6.25;;;3.08;;
66587;SDS011;53446;50.076;8.198;2022-07-29T01:39:32;8.25;;;3.50;;
66587;SDS011;53446;50.076;8.198;2022-07-29T01:41:36;7.85;;;3.10;;
66587;SDS011;53446;50.076;8.198;2022-07-29T01:44:39;7.40;;;3.30;;
66587;SDS011;53446;50.076;8.198;2022-07-29T01:46:13;7.35;;;3.13;;
66587;SDS011;53446;50.076;8.198;2022-07-29T01:48:16;7.05;;;2.70;;
66587;SDS011;53446;50.076;8.198;2022-07-29T01:50:19;6.95;;;2.63;;
66587;SDS011;53446;50.076;8.198;2022-07-29T01:52:25;8.07;;;3.05;;
66587;SDS011;53446;50.076;8.198;2022-07-29T01:54:39;6.77;;;2.87;;
66587;SDS011;53446;50.076;8.198;2022-07-29T01:56:42;7.40;;;3.30;;
66587;SDS011;53446;50.076;8.198;2022-07-29T01:58:43;5.95;;;2.70;;
66587;SDS011;53446;50.076;8.198;2022-07-29T02:00:45;6.32;;;2.90;;
66587;SDS011;53446;50.076;8.198;2022-07-29T02:02:46;6.65;;;3.00;;
66587;SDS011;53446;50.076;8.198;2022-07-29T02:04:47;7.72;;;2.88;;
66587;SDS011;53446;50.076;8.198;2022-07-29T02:06:49;7.72;;;3.20;;
66587;SDS011;53446;50.076;8.198;2022-07-29T02:08:51;6.10;;;2.53;;
66587;SDS011;53446;50.076;8.198;2022-07-29T02:10:52;6.43;;;2.95;;
66587;SDS011;53446;50.076;8.198;2022-07-29T02:12:54;6.87;;;2.97;;
66587;SDS011;53446;50.076;8.198;2022-07-29T02:14:56;7.60;;;3.08;;
66587;SDS011;53446;50.076;8.198;2022-07-29T02:16:59;8.43;;;3.22;;
66587;SDS011;53446;50.076;8.198;2022-07-29T02:19:00;7.72;;;3.40;;
66587;SDS011;53446;50.076;8.198;2022-07-29T02:21:02;6.70;;;2.97;;
66587;SDS011;53446;50.076;8.198;2022-07-29T02:23:03;7.10;;;3.30;;
66587;SDS011;53446;50.076;8.198;2022-07-29T02:25:04;6.93;;;3.17;;
66587;SDS011;53446;50.076;8.198;2022-07-29T02:27:06;7.28;;;3.13;;
66587;SDS011;53446;50.076;8.198;2022-07-29T02:29:07;10.60;;;4.05;;
66587;SDS011;53446;50.076;8.198;2022-07-29T02:31:09;10.25;;;4.05;;
66587;SDS011;53446;50.076;8.198;2022-07-29T02:33:12;9.93;;;3.78;;
66587;SDS011;53446;50.076;8.198;2022-07-29T02:35:14;11.98;;;4.10;;
66587;SDS011;53446;50.076;8.198;2022-07-29T02:37:15;8.88;;;3.70;;
66587;SDS011;53446;50.076;8.198;2022-07-29T02:39:16;9.53;;;4.17;;
66587;SDS011;53446;50.076;8.198;2022-07-29T02:41:23;8.63;;;3.83;;
66587;SDS011;53446;50.076;8.198;2022-07-29T02:43:24;7.93;;;3.70;;
66587;SDS011;53446;50.076;8.198;2022-07-29T02:45:25;9.45;;;4.00;;
66587;SDS011;53446;50.076;8.198;2022-07-29T02:47:27;8.60;;;3.65;;
66587;SDS011;53446;50.076;8.198;2022-07-29T02:51:43;6.95;;;3.83;;
66587;SDS011;53446;50.076;8.198;2022-07-29T02:53:47;7.45;;;3.90;;
66587;SDS011;53446;50.076;8.198;2022-07-29T02:56:11;8.35;;;4.00;;
66587;SDS011;53446;50.076;8.198;2022-07-29T02:58:14;9.57;;;4.00;;
66587;SDS011;53446;50.076;8.198;2022-07-29T03:00:18;10.68;;;4.38;;
66587;SDS011;53446;50.076;8.198;2022-07-29T03:02:19;7.40;;;3.65;;
66587;SDS011;53446;50.076;8.198;2022-07-29T03:04:20;10.35;;;4.25;;
66587;SDS011;53446;50.076;8.198;2022-07-29T03:06:22;7.95;;;3.65;;
66587;SDS011;53446;50.076;8.198;2022-07-29T03:08:23;7.78;;;4.00;;
66587;SDS011;53446;50.076;8.198;2022-07-29T03:10:25;8.97;;;4.43;;
66587;SDS011;53446;50.076;8.198;2022-07-29T03:12:25;9.18;;;4.18;;
66587;SDS011;53446;50.076;8.198;2022-07-29T03:14:26;10.60;;;4.50;;
66587;SDS011;53446;50.076;8.198;2022-07-29T03:16:26;10.27;;;4.45;;
66587;SDS011;53446;50.076;8.198;2022-07-29T03:18:27;11.37;;;4.40;;
66587;SDS011;53446;50.076;8.198;2022-07-29T03:20:28;8.50;;;4.00;;
66587;SDS011;53446;50.076;8.198;2022-07-29T03:22:28;12.73;;;4.20;;
66587;SDS011;53446;50.076;8.198;2022-07-29T03:24:33;9.00;;;4.28;;
66587;SDS011;53446;50.076;8.198;2022-07-29T03:26:36;7.90;;;4.10;;
66587;SDS011;53446;50.076;8.198;2022-07-29T03:28:36;8.52;;;4.10;;
66587;SDS011;53446;50.076;8.198;2022-07-29T03:30:36;9.00;;;4.47;;
66587;SDS011;53446;50.076;8.198;2022-07-29T03:32:37;6.73;;;3.87;;
66587;SDS011;53446;50.076;8.198;2022-07-29T03:34:38;9.75;;;3.85;;
66587;SDS011;53446;50.076;8.198;2022-07-29T03:36:38;7.95;;;3.85;;
66587;SDS011;53446;50.076;8.198;2022-07-29T03:38:38;9.70;;;3.77;;
66587;SDS011;53446;50.076;8.198;2022-07-29T03:40:42;8.55;;;3.95;;
66587;SDS011;53446;50.076;8.198;2022-07-29T03:42:45;9.52;;;4.13;;
66587;SDS011;53446;50.076;8.198;2022-07-29T03:44:45;7.15;;;4.05;;
66587;SDS011;53446;50.076;8.198;2022-07-29T03:46:48;7.37;;;3.83;;
66587;SDS011;53446;50.076;8.198;2022-07-29T03:48:50;7.65;;;4.20;;
66587;SDS011;53446;50.076;8.198;2022-07-29T03:50:53;8.43;;;4.28;;
66587;SDS011;53446;50.076;8.198;2022-07-29T03:52:53;8.27;;;4.17;;
66587;SDS011;53446;50.076;8.198;2022-07-29T03:54:53;7.77;;;4.17;;
66587;SDS011;53446;50.076;8.198;2022-07-29T03:56:54;8.38;;;3.83;;
66587;SDS011;53446;50.076;8.198;2022-07-29T03:58:55;10.33;;;3.93;;
66587;SDS011;53446;50.076;8.198;2022-07-29T04:00:56;9.80;;;4.10;;
66587;SDS011;53446;50.076;8.198;2022-07-29T04:02:56;8.77;;;3.50;;
66587;SDS011;53446;50.076;8.198;2022-07-29T04:04:57;8.45;;;3.80;;
66587;SDS011;53446;50.076;8.198;2022-07-29T04:06:57;6.50;;;3.83;;
66587;SDS011;53446;50.076;8.198;2022-07-29T04:08:57;8.03;;;4.10;;
66587;SDS011;53446;50.076;8.198;2022-07-29T04:10:58;8.43;;;4.10;;
66587;SDS011;53446;50.076;8.198;2022-07-29T04:12:59;9.75;;;4.55;;
66587;SDS011;53446;50.076;8.198;2022-07-29T04:14:59;7.93;;;4.40;;
66587;SDS011;53446;50.076;8.198;2022-07-29T04:17:00;9.17;;;4.40;;
66587;SDS011;53446;50.076;8.198;2022-07-29T04:19:01;9.70;;;4.15;;
66587;SDS011;53446;50.076;8.198;2022-07-29T04:21:02;9.17;;;4.80;;
66587;SDS011;53446;50.076;8.198;2022-07-29T04:23:03;8.13;;;4.60;;
66587;SDS011;53446;50.076;8.198;2022-07-29T04:25:04;8.03;;;3.97;;
66587;SDS011;53446;50.076;8.198;2022-07-29T04:27:04;7.80;;;4.25;;
66587;SDS011;53446;50.076;8.198;2022-07-29T04:29:05;9.53;;;4.70;;
66587;SDS011;53446;50.076;8.198;2022-07-29T04:31:05;9.50;;;4.23;;
66587;SDS011;53446;50.076;8.198;2022-07-29T04:33:06;8.83;;;4.50;;
66587;SDS011;53446;50.076;8.198;2022-07-29T04:35:07;8.40;;;3.92;;
66587;SDS011;53446;50.076;8.198;2022-07-29T04:37:07;7.40;;;4.20;;
66587;SDS011;53446;50.076;8.198;2022-07-29T04:39:08;7.00;;;4.10;;
66587;SDS011;53446;50.076;8.198;2022-07-29T04:41:08;6.78;;;3.90;;
66587;SDS011;53446;50.076;8.198;2022-07-29T04:43:08;7.78;;;3.90;;
66587;SDS011;53446;50.076;8.198;2022-07-29T04:45:09;8.33;;;3.93;;
66587;SDS011;53446;50.076;8.198;2022-07-29T04:47:09;6.87;;;3.57;;
66587;SDS011;53446;50.076;8.198;2022-07-29T04:49:09;7.47;;;3.87;;
66587;SDS011;53446;50.076;8.198;2022-07-29T04:51:09;6.30;;;3.80;;
66587;SDS011;53446;50.076;8.198;2022-07-29T04:53:10;9.02;;;4.10;;
66587;SDS011;53446;50.076;8.198;2022-07-29T04:55:11;6.25;;;3.53;;
66587;SDS011;53446;50.076;8.198;2022-07-29T04:57:11;5.90;;;3.57;;
66587;SDS011;53446;50.076;8.198;2022-07-29T04:59:11;8.57;;;3.90;;
66587;SDS011;53446;50.076;8.198;2022-07-29T05:01:12;7.83;;;4.13;;
66587;SDS011;53446;50.076;8.198;2022-07-29T05:03:12;7.93;;;4.20;;
66587;SDS011;53446;50.076;8.198;2022-07-29T05:05:12;8.50;;;4.22;;
66587;SDS011;53446;50.076;8.198;2022-07-29T05:07:12;6.67;;;4.00;;
66587;SDS011;53446;50.076;8.198;2022-07-29T05:09:14;8.57;;;3.67;;
66587;SDS011;53446;50.076;8.198;2022-07-29T05:11:14;8.77;;;3.40;;
66587;SDS011;53446;50.076;8.198;2022-07-29T05:13:14;6.93;;;3.70;;
66587;SDS011;53446;50.076;8.198;2022-07-29T05:15:14;6.93;;;3.60;;
66587;SDS011;53446;50.076;8.198;2022-07-29T05:17:15;7.13;;;3.73;;
66587;SDS011;53446;50.076;8.198;2022-07-29T05:19:15;7.23;;;4.20;;
66587;SDS011;53446;50.076;8.198;2022-07-29T05:21:15;7.87;;;3.83;;
66587;SDS011;53446;50.076;8.198;2022-07-29T05:23:16;10.07;;;4.37;;
66587;SDS011;53446;50.076;8.198;2022-07-29T05:25:16;8.05;;;3.70;;
66587;SDS011;53446;50.076;8.198;2022-07-29T05:27:16;10.80;;;3.70;;
66587;SDS011;53446;50.076;8.198;2022-07-29T05:29:16;6.13;;;3.63;;
66587;SDS011;53446;50.076;8.198;2022-07-29T05:31:17;7.43;;;3.73;;
66587;SDS011;53446;50.076;8.198;2022-07-29T05:33:17;8.20;;;3.40;;
66587;SDS011;53446;50.076;8.198;2022-07-29T05:35:17;14.37;;;3.87;;
66587;SDS011;53446;50.076;8.198;2022-07-29T05:37:18;7.80;;;3.60;;
66587;SDS011;53446;50.076;8.198;2022-07-29T05:39:19;7.63;;;3.30;;
66587;SDS011;53446;50.076;8.198;2022-07-29T05:41:20;6.70;;;3.38;;
66587;SDS011;53446;50.076;8.198;2022-07-29T05:43:21;6.30;;;3.53;;
66587;SDS011;53446;50.076;8.198;2022-07-29T05:45:21;7.38;;;3.60;;
66587;SDS011;53446;50.076;8.198;2022-07-29T05:47:22;7.73;;;3.40;;
66587;SDS011;53446;50.076;8.198;2022-07-29T05:49:22;7.97;;;3.20;;
66587;SDS011;53446;50.076;8.198;2022-07-29T05:51:22;8.95;;;3.58;;
66587;SDS011;53446;50.076;8.198;2022-07-29T05:53:23;8.02;;;4.40;;
66587;SDS011;53446;50.076;8.198;2022-07-29T05:55:23;8.50;;;3.67;;
66587;SDS011;53446;50.076;8.198;2022-07-29T05:57:24;9.90;;;3.93;;
66587;SDS011;53446;50.076;8.198;2022-07-29T05:59:24;7.88;;;3.83;;
66587;SDS011;53446;50.076;8.198;2022-07-29T06:01:25;8.67;;;3.40;;
66587;SDS011;53446;50.076;8.198;2022-07-29T06:03:26;9.53;;;3.80;;
66587;SDS011;53446;50.076;8.198;2022-07-29T06:05:26;8.82;;;3.20;;
66587;SDS011;53446;50.076;8.198;2022-07-29T06:07:26;6.53;;;3.43;;
66587;SDS011;53446;50.076;8.198;2022-07-29T06:09:27;8.13;;;3.20;;
66587;SDS011;53446;50.076;8.198;2022-07-29T06:11:27;7.27;;;3.53;;
66587;SDS011;53446;50.076;8.198;2022-07-29T06:13:27;8.80;;;3.60;;
66587;SDS011;53446;50.076;8.198;2022-07-29T06:15:28;7.20;;;3.40;;
66587;SDS011;53446;50.076;8.198;2022-07-29T06:17:28;6.00;;;3.38;;
66587;SDS011;53446;50.076;8.198;2022-07-29T06:19:28;7.20;;;3.35;;
66587;SDS011;53446;50.076;8.198;2022-07-29T06:21:28;6.90;;;3.60;;
66587;SDS011;53446;50.076;8.198;2022-07-29T06:23:29;8.33;;;3.53;;
66587;SDS011;53446;50.076;8.198;2022-07-29T06:25:30;6.37;;;3.20;;
66587;SDS011;53446;50.076;8.198;2022-07-29T06:27:30;8.40;;;3.35;;
66587;SDS011;53446;50.076;8.198;2022-07-29T06:29:30;8.07;;;3.30;;
66587;SDS011;53446;50.076;8.198;2022-07-29T06:31:31;7.00;;;3.13;;
66587;SDS011;53446;50.076;8.198;2022-07-29T06:33:31;7.37;;;3.30;;
66587;SDS011;53446;50.076;8.198;2022-07-29T06:35:35;8.00;;;3.20;;
66587;SDS011;53446;50.076;8.198;2022-07-29T06:37:35;6.45;;;3.20;;
66587;SDS011;53446;50.076;8.198;2022-07-29T06:39:36;6.40;;;3.20;;
66587;SDS011;53446;50.076;8.198;2022-07-29T06:41:36;6.53;;;3.33;;
66587;SDS011;53446;50.076;8.198;2022-07-29T06:43:38;8.05;;;3.10;;
66587;SDS011;53446;50.076;8.198;2022-07-29T06:45:41;7.73;;;3.20;;
66587;SDS011;53446;50.076;8.198;2022-07-29T06:47:42;7.43;;;3.50;;
66587;SDS011;53446;50.076;8.198;2022-07-29T06:49:42;8.33;;;3.73;;
66587;SDS011;53446;50.076;8.198;2022-07-29T06:51:43;7.47;;;3.10;;
66587;SDS011;53446;50.076;8.198;2022-07-29T06:53:43;9.40;;;3.05;;
66587;SDS011;53446;50.076;8.198;2022-07-29T06:55:43;7.75;;;3.28;;
66587;SDS011;53446;50.076;8.198;2022-07-29T06:57:44;6.20;;;2.77;;
66587;SDS011;53446;50.076;8.198;2022-07-29T06:59:44;7.13;;;3.10;;
66587;SDS011;53446;50.076;8.198;2022-07-29T07:01:45;6.50;;;3.07;;
66587;SDS011;53446;50.076;8.198;2022-07-29T07:03:45;6.10;;;3.08;;
66587;SDS011;53446;50.076;8.198;2022-07-29T07:05:46;7.50;;;3.23;;
66587;SDS011;53446;50.076;8.198;2022-07-29T07:07:46;8.67;;;3.30;;
66587;SDS011;53446;50.076;8.198;2022-07-29T07:09:46;6.57;;;2.90;;
66587;SDS011;53446;50.076;8.198;2022-07-29T07:11:47;5.95;;;3.10;;
66587;SDS011;53446;50.076;8.198;2022-07-29T07:13:47;8.80;;;3.20;;
66587;SDS011;53446;50.076;8.198;2022-07-29T07:15:47;8.57;;;3.30;;
66587;SDS011;53446;50.076;8.198;2022-07-29T07:17:48;7.90;;;3.27;;
66587;SDS011;53446;50.076;8.198;2022-07-29T07:19:49;6.85;;;3.08;;
66587;SDS011;53446;50.076;8.198;2022-07-29T07:21:49;9.17;;;3.40;;
66587;SDS011;53446;50.076;8.198;2022-07-29T07:23:49;6.07;;;3.03;;
66587;SDS011;53446;50.076;8.198;2022-07-29T07:25:49;8.60;;;3.17;;
66587;SDS011;53446;50.076;8.198;2022-07-29T07:27:50;8.80;;;3.23;;
66587;SDS011;53446;50.076;8.198;2022-07-29T07:29:50;7.37;;;3.37;;
66587;SDS011;53446;50.076;8.198;2022-07-29T07:31:50;9.00;;;3.50;;
66587;SDS011;53446;50.076;8.198;2022-07-29T07:33:50;9.20;;;3.10;;
66587;SDS011;53446;50.076;8.198;2022-07-29T07:35:52;7.10;;;3.05;;
66587;SDS011;53446;50.076;8.198;2022-07-29T07:37:52;5.23;;;3.00;;
66587;SDS011;53446;50.076;8.198;2022-07-29T07:39:52;6.67;;;2.83;;
66587;SDS011;53446;50.076;8.198;2022-07-29T07:41:53;7.07;;;3.15;;
66587;SDS011;53446;50.076;8.198;2022-07-29T07:43:53;6.23;;;3.10;;
66587;SDS011;53446;50.076;8.198;2022-07-29T07:45:53;8.07;;;3.10;;
66587;SDS011;53446;50.076;8.198;2022-07-29T07:47:54;6.87;;;2.97;;
66587;SDS011;53446;50.076;8.198;2022-07-29T07:49:54;9.10;;;3.17;;
66587;SDS011;53446;50.076;8.198;2022-07-29T07:51:54;7.03;;;3.37;;
66587;SDS011;53446;50.076;8.198;2022-07-29T07:53:54;7.60;;;3.30;;
66587;SDS011;53446;50.076;8.198;2022-07-29T07:55:55;10.85;;;3.55;;
66587;SDS011;53446;50.076;8.198;2022-07-29T07:57:55;8.38;;;3.28;;
66587;SDS011;53446;50.076;8.198;2022-07-29T07:59:55;7.50;;;3.33;;
66587;SDS011;53446;50.076;8.198;2022-07-29T08:01:56;7.20;;;3.70;;
66587;SDS011;53446;50.076;8.198;2022-07-29T08:03:56;6.77;;;3.20;;
66587;SDS011;53446;50.076;8.198;2022-07-29T08:05:56;6.43;;;3.10;;
66587;SDS011;53446;50.076;8.198;2022-07-29T08:07:57;9.30;;;3.57;;
66587;SDS011;53446;50.076;8.198;2022-07-29T08:09:57;8.40;;;3.40;;
66587;SDS011;53446;50.076;8.198;2022-07-29T08:11:57;6.15;;;3.30;;
66587;SDS011;53446;50.076;8.198;2022-07-29T08:13:59;8.83;;;3.90;;
66587;SDS011;53446;50.076;8.198;2022-07-29T08:16:01;8.15;;;3.50;;
66587;SDS011;53446;50.076;8.198;2022-07-29T08:18:01;7.40;;;3.00;;
66587;SDS011;53446;50.076;8.198;2022-07-29T08:20:02;7.80;;;3.40;;
66587;SDS011;53446;50.076;8.198;2022-07-29T08:22:02;6.53;;;3.40;;
66587;SDS011;53446;50.076;8.198;2022-07-29T08:24:03;6.97;;;3.57;;
66587;SDS011;53446;50.076;8.198;2022-07-29T08:26:22;11.55;;;3.40;;
66587;SDS011;53446;50.076;8.198;2022-07-29T08:28:23;6.82;;;3.08;;
66587;SDS011;53446;50.076;8.198;2022-07-29T08:30:24;7.83;;;3.40;;
66587;SDS011;53446;50.076;8.198;2022-07-29T08:32:24;6.90;;;3.25;;
66587;SDS011;53446;50.076;8.198;2022-07-29T08:34:24;7.03;;;3.40;;
66587;SDS011;53446;50.076;8.198;2022-07-29T08:36:26;7.57;;;2.90;;
66587;SDS011;53446;50.076;8.198;2022-07-29T08:38:26;7.68;;;3.08;;
66587;SDS011;53446;50.076;8.198;2022-07-29T08:40:27;5.95;;;3.45;;
66587;SDS011;53446;50.076;8.198;2022-07-29T08:42:27;8.57;;;3.60;;
66587;SDS011;53446;50.076;8.198;2022-07-29T08:44:28;8.10;;;3.73;;
66587;SDS011;53446;50.076;8.198;2022-07-29T08:46:28;8.17;;;3.47;;
66587;SDS011;53446;50.076;8.198;2022-07-29T08:48:28;7.38;;;3.25;;
66587;SDS011;53446;50.076;8.198;2022-07-29T08:50:29;7.97;;;3.40;;
66587;SDS011;53446;50.076;8.198;2022-07-29T08:52:29;6.70;;;3.20;;
66587;SDS011;53446;50.076;8.198;2022-07-29T08:54:32;8.93;;;3.50;;
66587;SDS011;53446;50.076;8.198;2022-07-29T08:56:33;7.70;;;3.27;;
66587;SDS011;53446;50.076;8.198;2022-07-29T08:58:34;7.35;;;3.47;;
66587;SDS011;53446;50.076;8.198;2022-07-29T09:00:35;8.20;;;3.50;;
66587;SDS011;53446;50.076;8.198;2022-07-29T09:02:39;7.53;;;3.50;;
66587;SDS011;53446;50.076;8.198;2022-07-29T09:04:40;7.47;;;3.35;;
66587;SDS011;53446;50.076;8.198;2022-07-29T09:06:45;6.30;;;3.27;;
66587;SDS011;53446;50.076;8.198;2022-07-29T09:08:47;8.40;;;3.50;;
66587;SDS011;53446;50.076;8.198;2022-07-29T09:10:47;7.10;;;3.30;;
66587;SDS011;53446;50.076;8.198;2022-07-29T09:12:47;7.97;;;3.33;;
66587;SDS011;53446;50.076;8.198;2022-07-29T09:14:48;9.02;;;3.25;;
66587;SDS011;53446;50.076;8.198;2022-07-29T09:16:50;8.67;;;3.43;;
66587;SDS011;53446;50.076;8.198;2022-07-29T09:18:52;6.82;;;3.53;;
66587;SDS011;53446;50.076;8.198;2022-07-29T09:20:52;10.30;;;3.70;;
66587;SDS011;53446;50.076;8.198;2022-07-29T09:23:11;10.77;;;3.40;;
66587;SDS011;53446;50.076;8.198;2022-07-29T09:25:11;7.10;;;3.43;;
66587;SDS011;53446;50.076;8.198;2022-07-29T09:27:22;8.43;;;3.30;;
66587;SDS011;53446;50.076;8.198;2022-07-29T09:29:25;8.35;;;3.10;;
66587;SDS011;53446;50.076;8.198;2022-07-29T09:31:34;8.10;;;3.42;;
66587;SDS011;53446;50.076;8.198;2022-07-29T09:33:36;6.35;;;3.20;;
66587;SDS011;53446;50.076;8.198;2022-07-29T09:35:40;6.27;;;3.37;;
66587;SDS011;53446;50.076;8.198;2022-07-29T09:37:40;6.93;;;3.30;;
66587;SDS011;53446;50.076;8.198;2022-07-29T09:39:41;8.80;;;3.17;;
66587;SDS011;53446;50.076;8.198;2022-07-29T09:41:46;7.38;;;3.20;;
66587;SDS011;53446;50.076;8.198;2022-07-29T09:43:53;7.32;;;3.47;;
66587;SDS011;53446;50.076;8.198;2022-07-29T09:46:09;7.63;;;3.57;;
66587;SDS011;53446;50.076;8.198;2022-07-29T09:48:17;7.22;;;3.22;;
66587;SDS011;53446;50.076;8.198;2022-07-29T09:50:18;8.43;;;3.25;;
66587;SDS011;53446;50.076;8.198;2022-07-29T09:52:24;9.88;;;3.45;;
66587;SDS011;53446;50.076;8.198;2022-07-29T09:54:25;7.93;;;3.45;;
66587;SDS011;53446;50.076;8.198;2022-07-29T09:56:40;7.57;;;3.83;;
66587;SDS011;53446;50.076;8.198;2022-07-29T09:58:40;8.32;;;3.10;;
66587;SDS011;53446;50.076;8.198;2022-07-29T10:00:44;7.97;;;3.40;;
66587;SDS011;53446;50.076;8.198;2022-07-29T10:02:46;9.35;;;3.70;;
66587;SDS011;53446;50.076;8.198;2022-07-29T10:04:46;8.30;;;3.55;;
66587;SDS011;53446;50.076;8.198;2022-07-29T10:06:59;6.33;;;3.60;;
66587;SDS011;53446;50.076;8.198;2022-07-29T10:09:07;5.55;;;3.20;;
66587;SDS011;53446;50.076;8.198;2022-07-29T10:11:14;7.45;;;3.58;;
66587;SDS011;53446;50.076;8.198;2022-07-29T10:13:15;6.53;;;3.50;;
66587;SDS011;53446;50.076;8.198;2022-07-29T10:15:16;8.75;;;3.88;;
66587;SDS011;53446;50.076;8.198;2022-07-29T10:17:16;7.13;;;3.37;;
66587;SDS011;53446;50.076;8.198;2022-07-29T10:19:18;7.88;;;3.20;;
66587;SDS011;53446;50.076;8.198;2022-07-29T10:21:18;6.83;;;3.27;;
66587;SDS011;53446;50.076;8.198;2022-07-29T10:23:18;15.50;;;3.90;;
66587;SDS011;53446;50.076;8.198;2022-07-29T10:25:19;7.20;;;3.47;;
66587;SDS011;53446;50.076;8.198;2022-07-29T10:27:21;7.50;;;3.42;;
66587;SDS011;53446;50.076;8.198;2022-07-29T10:29:22;8.20;;;3.60;;
66587;SDS011;53446;50.076;8.198;2022-07-29T10:31:26;8.20;;;3.50;;
66587;SDS011;53446;50.076;8.198;2022-07-29T10:36:24;6.38;;;3.40;;
66587;SDS011;53446;50.076;8.198;2022-07-29T10:38:29;7.28;;;3.80;;
66587;SDS011;53446;50.076;8.198;2022-07-29T10:43:09;8.82;;;3.70;;
66587;SDS011;53446;50.076;8.198;2022-07-29T10:45:17;8.10;;;3.42;;
66587;SDS011;53446;50.076;8.198;2022-07-29T10:47:21;9.93;;;3.70;;
66587;SDS011;53446;50.076;8.198;2022-07-29T10:49:23;10.15;;;3.70;;
66587;SDS011;53446;50.076;8.198;2022-07-29T10:51:25;8.32;;;3.78;;
66587;SDS011;53446;50.076;8.198;2022-07-29T10:54:02;7.75;;;4.07;;
66587;SDS011;53446;50.076;8.198;2022-07-29T10:56:05;6.50;;;3.63;;
66587;SDS011;53446;50.076;8.198;2022-07-29T10:58:23;6.53;;;3.65;;
66587;SDS011;53446;50.076;8.198;2022-07-29T11:00:27;7.43;;;3.63;;
66587;SDS011;53446;50.076;8.198;2022-07-29T11:09:18;9.77;;;4.20;;
66587;SDS011;53446;50.076;8.198;2022-07-29T11:13:44;13.97;;;4.00;;
66587;SDS011;53446;50.076;8.198;2022-07-29T11:15:53;14.10;;;4.20;;
66587;SDS011;53446;50.076;8.198;2022-07-29T11:22:35;9.52;;;3.80;;
66587;SDS011;53446;50.076;8.198;2022-07-29T11:24:37;7.80;;;3.97;;
66587;SDS011;53446;50.076;8.198;2022-07-29T11:26:37;7.88;;;4.05;;
66587;SDS011;53446;50.076;8.198;2022-07-29T11:30:51;11.25;;;4.30;;
66587;SDS011;53446;50.076;8.198;2022-07-29T11:32:52;8.73;;;3.97;;
66587;SDS011;53446;50.076;8.198;2022-07-29T11:37:22;11.68;;;3.92;;
66587;SDS011;53446;50.076;8.198;2022-07-29T11:39:26;6.38;;;4.07;;
66587;SDS011;53446;50.076;8.198;2022-07-29T11:41:27;7.20;;;3.78;;
66587;SDS011;53446;50.076;8.198;2022-07-29T11:45:48;7.68;;;4.43;;
66587;SDS011;53446;50.076;8.198;2022-07-29T11:47:50;8.43;;;4.10;;
66587;SDS011;53446;50.076;8.198;2022-07-29T11:49:53;7.88;;;4.00;;
66587;SDS011;53446;50.076;8.198;2022-07-29T11:51:55;5.90;;;4.10;;
66587;SDS011;53446;50.076;8.198;2022-07-29T11:53:57;7.63;;;3.75;;
66587;SDS011;53446;50.076;8.198;2022-07-29T11:55:57;10.27;;;4.03;;
66587;SDS011;53446;50.076;8.198;2022-07-29T11:57:59;7.67;;;4.10;;
66587;SDS011;53446;50.076;8.198;2022-07-29T11:59:59;9.00;;;4.20;;
66587;SDS011;53446;50.076;8.198;2022-07-29T12:02:00;7.27;;;3.70;;
66587;SDS011;53446;50.076;8.198;2022-07-29T12:04:04;8.83;;;4.20;;
66587;SDS011;53446;50.076;8.198;2022-07-29T12:06:14;8.98;;;4.22;;
66587;SDS011;53446;50.076;8.198;2022-07-29T12:08:19;5.40;;;3.85;;
66587;SDS011;53446;50.076;8.198;2022-07-29T12:10:21;7.43;;;3.92;;
66587;SDS011;53446;50.076;8.198;2022-07-29T12:12:22;8.70;;;4.03;;
66587;SDS011;53446;50.076;8.198;2022-07-29T12:14:29;6.20;;;3.73;;
66587;SDS011;53446;50.076;8.198;2022-07-29T12:16:36;6.65;;;4.00;;
66587;SDS011;53446;50.076;8.198;2022-07-29T12:18:37;6.95;;;4.40;;
66587;SDS011;53446;50.076;8.198;2022-07-29T12:20:37;6.23;;;4.00;;
66587;SDS011;53446;50.076;8.198;2022-07-29T12:22:38;8.00;;;4.30;;
66587;SDS011;53446;50.076;8.198;2022-07-29T12:24:43;8.30;;;4.18;;
66587;SDS011;53446;50.076;8.198;2022-07-29T12:26:56;9.82;;;4.53;;
66587;SDS011;53446;50.076;8.198;2022-07-29T12:28:58;9.68;;;4.10;;
66587;SDS011;53446;50.076;8.198;2022-07-29T12:30:58;8.03;;;4.27;;
66587;SDS011;53446;50.076;8.198;2022-07-29T12:32:59;6.73;;;4.23;;
66587;SDS011;53446;50.076;8.198;2022-07-29T12:34:59;6.93;;;4.07;;
66587;SDS011;53446;50.076;8.198;2022-07-29T12:37:03;8.30;;;4.00;;
66587;SDS011;53446;50.076;8.198;2022-07-29T12:39:04;8.33;;;4.27;;
66587;SDS011;53446;50.076;8.198;2022-07-29T12:41:04;8.32;;;4.30;;
66587;SDS011;53446;50.076;8.198;2022-07-29T12:43:05;12.43;;;3.53;;
66587;SDS011;53446;50.076;8.198;2022-07-29T12:45:07;6.40;;;4.07;;